createdAt,value
2018-07-04T00:00:39.887Z,14.57
2018-07-04T00:03:21.007Z,14.60
2018-07-04T00:06:00.978Z,14.59
2018-07-04T00:08:41.496Z,14.56
2018-07-04T00:11:22.566Z,14.57
2018-07-04T00:14:03.523Z,14.50
2018-07-04T00:16:44.924Z,14.62
2018-07-04T00:19:25.189Z,14.64
2018-07-04T00:22:06.893Z,14.52
2018-07-04T00:24:46.917Z,14.49
2018-07-04T00:27:26.920Z,14.49
2018-07-04T00:30:08.992Z,14.45
2018-07-04T00:32:48.993Z,14.36
2018-07-04T00:35:28.804Z,14.48
2018-07-04T00:38:08.857Z,14.47
2018-07-04T00:40:48.610Z,14.55
2018-07-04T00:43:28.727Z,14.42
2018-07-04T00:46:09.238Z,14.39
2018-07-04T00:48:49.447Z,14.35
2018-07-04T00:51:29.502Z,14.44
2018-07-04T00:54:11.050Z,14.38
2018-07-04T00:56:51.247Z,14.41
2018-07-04T00:59:32.575Z,14.35
2018-07-04T01:02:13.194Z,14.48
2018-07-04T01:04:53.808Z,14.48
2018-07-04T01:07:33.793Z,14.36
2018-07-04T01:10:13.905Z,14.36
2018-07-04T01:12:54.380Z,14.36
2018-07-04T01:15:34.694Z,14.23
2018-07-04T01:18:14.911Z,14.23
2018-07-04T01:21:00.035Z,14.27
2018-07-04T01:23:40.276Z,14.21
2018-07-04T01:26:20.560Z,14.29
2018-07-04T01:29:00.683Z,14.20
2018-07-04T01:31:40.948Z,14.09
2018-07-04T01:34:20.847Z,14.07
2018-07-04T01:37:01.827Z,14.16
2018-07-04T01:39:42.737Z,14.12
2018-07-04T01:42:22.754Z,14.12
2018-07-04T01:45:02.739Z,14.12
2018-07-04T01:47:43.541Z,14.05
2018-07-04T01:50:23.448Z,13.96
2018-07-04T01:53:03.518Z,14.06
2018-07-04T01:55:43.908Z,14.04
2018-07-04T01:58:24.186Z,13.95
2018-07-04T02:01:04.083Z,13.84
2018-07-04T02:03:44.477Z,13.88
2018-07-04T02:06:24.571Z,13.88
2018-07-04T02:09:05.579Z,13.76
2018-07-04T02:11:45.855Z,13.67
2018-07-04T02:14:26.802Z,13.57
2018-07-04T02:17:06.910Z,13.72
2018-07-04T02:19:46.708Z,13.80
2018-07-04T02:22:27.098Z,13.63
2018-07-04T02:25:07.491Z,13.68
2018-07-04T02:27:47.475Z,13.67
2018-07-04T02:30:27.628Z,13.70
2018-07-04T02:33:07.769Z,13.63
2018-07-04T02:35:47.582Z,13.59
2018-07-04T02:38:27.894Z,13.59
2018-07-04T02:41:08.343Z,13.79
2018-07-04T02:43:48.286Z,13.70
2018-07-04T02:46:33.468Z,13.51
2018-07-04T02:49:13.460Z,13.57
2018-07-04T02:51:53.396Z,13.48
2018-07-04T02:54:33.701Z,13.54
2018-07-04T02:57:13.722Z,13.41
2018-07-04T02:59:53.999Z,13.46
2018-07-04T03:02:34.022Z,13.38
2018-07-04T03:05:13.854Z,13.41
2018-07-04T03:07:54.111Z,13.44
2018-07-04T03:10:36.101Z,13.50
2018-07-04T03:13:16.106Z,13.45
2018-07-04T03:15:55.844Z,13.45
2018-07-04T03:18:35.771Z,13.32
2018-07-04T03:21:15.595Z,13.23
2018-07-04T03:23:55.459Z,13.22
2018-07-04T03:26:35.322Z,13.03
2018-07-04T03:29:15.286Z,13.20
2018-07-04T03:31:55.254Z,13.30
2018-07-04T03:34:35.670Z,13.21
2018-07-04T03:37:15.762Z,13.22
2018-07-04T03:39:55.801Z,13.26
2018-07-04T03:42:35.767Z,13.13
2018-07-04T03:45:15.631Z,13.07
2018-07-04T03:47:55.568Z,13.09
2018-07-04T03:50:35.677Z,13.09
2018-07-04T03:53:15.715Z,13.15
2018-07-04T03:55:56.770Z,13.09
2018-07-04T03:58:36.909Z,13.21
2018-07-04T04:01:17.007Z,13.23
2018-07-04T04:03:58.589Z,13.09
2018-07-04T04:06:39.289Z,13.20
2018-07-04T04:09:19.331Z,13.34
2018-07-04T04:11:59.225Z,13.30
2018-07-04T04:14:39.481Z,13.32
2018-07-04T04:17:19.788Z,13.16
2018-07-04T04:19:59.621Z,13.12
2018-07-04T04:22:39.903Z,13.29
2018-07-04T04:25:19.867Z,13.43
2018-07-04T04:27:59.855Z,13.50
2018-07-04T04:30:40.055Z,13.54
2018-07-04T04:33:20.108Z,13.59
2018-07-04T04:36:01.092Z,13.67
2018-07-04T04:38:41.250Z,13.59
2018-07-04T04:41:22.240Z,13.76
2018-07-04T04:44:02.451Z,13.88
2018-07-04T04:46:42.658Z,14.03
2018-07-04T04:49:22.684Z,14.33
2018-07-04T04:52:02.825Z,14.64
2018-07-04T04:54:43.089Z,14.60
2018-07-04T04:57:23.440Z,14.67
2018-07-04T05:00:03.549Z,14.88
2018-07-04T05:02:43.605Z,15.12
2018-07-04T05:05:24.530Z,15.37
2018-07-04T05:08:04.695Z,15.41
2018-07-04T05:10:45.127Z,15.52
2018-07-04T05:13:25.487Z,15.23
2018-07-04T05:16:05.447Z,15.17
2018-07-04T05:18:46.540Z,15.14
2018-07-04T05:21:26.571Z,15.13
2018-07-04T05:24:06.722Z,15.56
2018-07-04T05:26:46.616Z,15.84
2018-07-04T05:29:26.677Z,15.70
2018-07-04T05:32:06.795Z,15.74
2018-07-04T05:34:46.803Z,15.93
2018-07-04T05:37:27.002Z,15.89
2018-07-04T05:40:07.234Z,16.00
2018-07-04T05:42:47.519Z,16.15
2018-07-04T05:45:27.867Z,16.30
2018-07-04T05:48:07.931Z,16.53
2018-07-04T05:50:48.178Z,17.19
2018-07-04T05:53:28.511Z,17.81
2018-07-04T05:56:08.488Z,17.90
2018-07-04T05:58:48.580Z,18.47
2018-07-04T06:01:28.515Z,18.75
2018-07-04T06:04:08.958Z,18.38
2018-07-04T06:06:49.455Z,17.47
2018-07-04T06:09:29.783Z,17.71
2018-07-04T06:12:09.845Z,17.79
2018-07-04T06:14:50.217Z,17.74
2018-07-04T06:17:30.457Z,18.04
2018-07-04T06:20:10.802Z,18.44
2018-07-04T06:22:51.077Z,18.53
2018-07-04T06:25:31.649Z,18.58
2018-07-04T06:28:12.123Z,19.12
2018-07-04T06:30:52.416Z,19.37
2018-07-04T06:33:32.453Z,19.71
2018-07-04T06:36:12.983Z,19.77
2018-07-04T06:38:40.640Z,19.23
2018-07-04T06:41:08.279Z,19.19
2018-07-04T06:43:36.273Z,19.63
2018-07-04T06:46:04.063Z,19.99
2018-07-04T06:48:31.879Z,19.77
2018-07-04T06:50:59.780Z,20.16
2018-07-04T06:53:27.583Z,20.19
2018-07-04T06:55:55.535Z,20.99
2018-07-04T06:58:23.489Z,20.64
2018-07-04T07:00:51.465Z,20.54
2018-07-04T07:03:32.281Z,20.27
2018-07-04T07:06:12.360Z,21.17
2018-07-04T07:08:52.229Z,21.58
2018-07-04T07:11:32.565Z,20.87
2018-07-04T07:14:12.841Z,21.28
2018-07-04T07:16:53.045Z,20.67
2018-07-04T07:19:33.039Z,21.02
2018-07-04T07:22:12.965Z,20.76
2018-07-04T07:24:53.597Z,20.81
2018-07-04T07:27:34.141Z,20.62
2018-07-04T07:30:14.084Z,20.97
2018-07-04T07:32:55.777Z,21.03
2018-07-04T07:35:35.999Z,20.86
2018-07-04T07:38:15.998Z,20.84
2018-07-04T07:40:56.308Z,20.82
2018-07-04T07:43:36.603Z,21.25
2018-07-04T07:46:16.970Z,21.16
2018-07-04T07:48:56.930Z,20.96
2018-07-04T07:51:37.030Z,21.49
2018-07-04T07:54:18.368Z,21.43
2018-07-04T07:56:58.255Z,21.82
2018-07-04T07:59:38.433Z,22.23
2018-07-04T08:02:18.685Z,22.64
2018-07-04T08:04:58.760Z,22.30
2018-07-04T08:07:38.992Z,22.53
2018-07-04T08:10:19.361Z,22.50
2018-07-04T08:13:00.350Z,22.39
2018-07-04T08:15:40.621Z,22.25
2018-07-04T08:18:21.471Z,22.54
2018-07-04T08:21:01.747Z,22.24
2018-07-04T08:23:41.783Z,21.80
2018-07-04T08:26:22.079Z,21.98
2018-07-04T08:29:02.193Z,22.72
2018-07-04T08:31:42.479Z,23.13
2018-07-04T08:34:23.032Z,23.12
2018-07-04T08:37:03.090Z,23.05
2018-07-04T08:39:43.328Z,23.49
2018-07-04T08:42:23.523Z,23.30
2018-07-04T08:45:03.643Z,23.35
2018-07-04T08:47:44.030Z,23.57
2018-07-04T08:50:24.397Z,23.86
2018-07-04T08:53:05.448Z,24.03
2018-07-04T08:55:45.512Z,24.08
2018-07-04T08:58:25.921Z,23.80
2018-07-04T09:01:06.124Z,23.81
2018-07-04T09:03:46.488Z,24.13
2018-07-04T09:06:26.569Z,24.36
2018-07-04T09:09:06.493Z,24.61
2018-07-04T09:11:46.906Z,24.62
2018-07-04T09:14:26.799Z,24.37
2018-07-04T09:17:06.867Z,25.17
2018-07-04T09:19:47.356Z,24.82
2018-07-04T09:22:27.642Z,25.52
2018-07-04T09:25:07.866Z,25.37
2018-07-04T09:27:47.822Z,25.34
2018-07-04T09:30:28.243Z,25.34
2018-07-04T09:33:08.591Z,25.34
2018-07-04T09:35:48.961Z,25.66
2018-07-04T09:38:29.085Z,25.63
2018-07-04T09:41:09.059Z,25.57
2018-07-04T09:43:49.736Z,25.78
2018-07-04T09:46:30.267Z,26.06
2018-07-04T09:49:10.473Z,25.93
2018-07-04T09:51:50.475Z,26.02
2018-07-04T09:54:30.784Z,26.55
2018-07-04T09:57:11.790Z,26.62
2018-07-04T09:59:52.726Z,26.54
2018-07-04T10:02:32.846Z,26.37
2018-07-04T10:05:13.033Z,25.82
2018-07-04T10:07:53.116Z,26.36
2018-07-04T10:10:33.331Z,26.13
2018-07-04T10:13:13.788Z,26.62
2018-07-04T10:15:54.092Z,26.55
2018-07-04T10:18:34.112Z,26.07
2018-07-04T10:21:14.774Z,26.53
2018-07-04T10:23:54.731Z,26.21
2018-07-04T10:26:34.796Z,26.58
2018-07-04T10:29:15.140Z,26.69
2018-07-04T10:31:55.205Z,25.75
2018-07-04T10:34:35.729Z,26.09
2018-07-04T10:37:15.810Z,26.17
2018-07-04T10:39:56.052Z,26.35
2018-07-04T10:42:36.191Z,26.45
2018-07-04T10:45:16.293Z,26.09
2018-07-04T10:47:56.353Z,26.30
2018-07-04T10:50:36.386Z,26.41
2018-07-04T10:53:17.826Z,26.37
2018-07-04T10:55:57.574Z,26.39
2018-07-04T10:58:37.663Z,26.49
2018-07-04T11:01:17.895Z,26.72
2018-07-04T11:03:58.385Z,26.69
2018-07-04T11:06:38.655Z,26.67
2018-07-04T11:09:19.752Z,26.22
2018-07-04T11:11:59.902Z,26.59
2018-07-04T11:14:40.234Z,26.70
2018-07-04T11:17:20.467Z,26.78
2018-07-04T11:20:00.940Z,26.59
2018-07-04T11:22:41.416Z,25.87
2018-07-04T11:25:21.897Z,26.07
2018-07-04T11:28:02.297Z,26.02
2018-07-04T11:30:42.603Z,26.52
2018-07-04T11:33:22.950Z,26.27
2018-07-04T11:36:03.257Z,26.39
2018-07-04T11:38:44.414Z,26.24
2018-07-04T11:41:25.065Z,26.77
2018-07-04T11:44:05.506Z,26.62
2018-07-04T11:46:33.203Z,26.01
2018-07-04T11:49:02.071Z,26.31
2018-07-04T11:51:30.747Z,26.59
2018-07-04T11:53:58.464Z,26.96
2018-07-04T11:56:26.052Z,27.19
2018-07-04T11:58:53.638Z,27.17
2018-07-04T12:01:22.153Z,27.21
2018-07-04T12:04:02.975Z,27.01
2018-07-04T12:06:43.629Z,27.14
2018-07-04T12:09:11.337Z,27.17
2018-07-04T12:11:38.892Z,26.95
2018-07-04T12:14:07.777Z,26.87
2018-07-04T12:16:35.599Z,27.35
2018-07-04T12:19:03.111Z,26.97
2018-07-04T12:21:30.641Z,27.17
2018-07-04T12:23:58.333Z,27.19
2018-07-04T12:26:25.852Z,27.27
2018-07-04T12:28:53.430Z,27.07
2018-07-04T12:31:20.948Z,27.65
2018-07-04T12:33:48.565Z,27.93
2018-07-04T12:36:16.263Z,27.70
2018-07-04T12:38:43.840Z,27.76
2018-07-04T12:41:11.390Z,27.72
2018-07-04T12:43:39.059Z,27.57
2018-07-04T12:46:06.918Z,27.48
2018-07-04T12:48:34.676Z,27.68
2018-07-04T12:51:03.510Z,27.29
2018-07-04T12:53:31.411Z,27.62
2018-07-04T12:56:11.470Z,27.62
2018-07-04T12:58:51.555Z,27.36
2018-07-04T13:01:31.531Z,27.34
2018-07-04T13:04:11.523Z,27.07
2018-07-04T13:06:51.414Z,27.79
2018-07-04T13:09:31.386Z,27.74
2018-07-04T13:12:11.517Z,28.02
2018-07-04T13:14:52.417Z,27.93
2018-07-04T13:17:33.055Z,28.02
2018-07-04T13:20:13.598Z,28.20
2018-07-04T13:22:54.404Z,27.95
2018-07-04T13:25:35.118Z,28.26
2018-07-04T13:28:15.183Z,27.68
2018-07-04T13:30:55.037Z,27.52
2018-07-04T13:33:35.814Z,27.27
2018-07-04T13:36:17.407Z,26.94
2018-07-04T13:38:57.384Z,27.23
2018-07-04T13:41:37.484Z,27.33
2018-07-04T13:44:17.837Z,27.55
2018-07-04T13:46:57.897Z,27.52
2018-07-04T13:49:38.359Z,27.95
2018-07-04T13:52:19.502Z,28.15
2018-07-04T13:55:01.233Z,27.89
2018-07-04T13:57:41.577Z,27.93
2018-07-04T14:00:22.124Z,28.27
2018-07-04T14:03:02.894Z,28.83
2018-07-04T14:05:44.478Z,28.52
2018-07-04T14:08:24.464Z,28.41
2018-07-04T14:11:04.986Z,28.32
2018-07-04T14:13:45.085Z,28.06
2018-07-04T14:16:25.284Z,27.83
2018-07-04T14:19:05.303Z,27.89
2018-07-04T14:21:45.459Z,28.10
2018-07-04T14:24:25.700Z,28.23
2018-07-04T14:27:05.745Z,28.04
2018-07-04T14:29:47.070Z,28.15
2018-07-04T14:32:27.550Z,27.86
2018-07-04T14:35:08.210Z,28.01
2018-07-04T14:37:48.870Z,28.16
2018-07-04T14:40:29.324Z,28.36
2018-07-04T14:43:09.657Z,28.39
2018-07-04T14:45:50.141Z,28.05
2018-07-04T14:48:30.584Z,27.74
2018-07-04T14:51:10.883Z,27.89
2018-07-04T14:53:51.712Z,28.25
2018-07-04T14:56:32.227Z,28.38
2018-07-04T14:59:12.256Z,28.55
2018-07-04T15:01:52.600Z,28.74
2018-07-04T15:04:33.092Z,28.62
2018-07-04T15:07:13.650Z,28.56
2018-07-04T15:09:53.943Z,28.63
2018-07-04T15:12:34.046Z,28.39
2018-07-04T15:15:14.727Z,28.34
2018-07-04T15:17:55.453Z,28.29
2018-07-04T15:20:35.768Z,28.06
2018-07-04T15:23:17.173Z,27.56
2018-07-04T15:25:58.026Z,27.80
2018-07-04T15:28:37.891Z,27.36
2018-07-04T15:31:18.053Z,27.31
2018-07-04T15:33:58.584Z,26.92
2018-07-04T15:36:38.574Z,26.80
2018-07-04T15:39:20.699Z,26.62
2018-07-04T15:42:01.490Z,26.64
2018-07-04T15:44:41.170Z,26.60
2018-07-04T15:47:20.973Z,26.33
2018-07-04T15:50:00.846Z,26.38
2018-07-04T15:52:41.755Z,26.36
2018-07-04T15:55:22.281Z,26.11
2018-07-04T15:58:02.723Z,25.87
2018-07-04T16:00:42.967Z,25.73
2018-07-04T16:03:23.215Z,25.61
2018-07-04T16:06:03.148Z,25.53
2018-07-04T16:08:43.040Z,25.51
2018-07-04T16:11:22.944Z,25.45
2018-07-04T16:14:03.297Z,25.33
2018-07-04T16:16:43.281Z,25.41
2018-07-04T16:19:24.068Z,25.24
2018-07-04T16:22:04.628Z,25.10
2018-07-04T16:24:44.575Z,25.05
2018-07-04T16:27:25.256Z,25.05
2018-07-04T16:30:05.742Z,24.82
2018-07-04T16:32:46.063Z,24.80
2018-07-04T16:35:25.985Z,24.74
2018-07-04T16:38:08.654Z,24.54
2018-07-04T16:40:50.009Z,24.50
2018-07-04T16:43:30.263Z,24.46
2018-07-04T16:46:12.084Z,24.25
2018-07-04T16:48:52.494Z,24.30
2018-07-04T16:51:32.885Z,24.24
2018-07-04T16:54:12.784Z,24.07
2018-07-04T16:56:54.321Z,24.12
2018-07-04T16:59:34.793Z,24.09
2018-07-04T17:02:14.923Z,23.98
2018-07-04T17:04:55.104Z,23.89
2018-07-04T17:07:35.825Z,23.88
2018-07-04T17:10:16.036Z,23.93
2018-07-04T17:12:56.186Z,23.93
2018-07-04T17:15:36.529Z,23.93
2018-07-04T17:18:17.562Z,23.87
2018-07-04T17:20:58.028Z,23.99
2018-07-04T17:23:38.348Z,23.64
2018-07-04T17:26:19.421Z,23.61
2018-07-04T17:29:01.041Z,23.61
2018-07-04T17:31:42.160Z,23.62
2018-07-04T17:34:22.494Z,23.55
2018-07-04T17:37:03.048Z,23.45
2018-07-04T17:39:43.585Z,23.38
2018-07-04T17:42:24.132Z,23.41
2018-07-04T17:45:05.819Z,23.35
2018-07-04T17:47:46.240Z,23.32
2018-07-04T17:50:26.923Z,23.26
2018-07-04T17:53:07.308Z,23.21
2018-07-04T17:55:48.473Z,23.00
2018-07-04T17:58:29.852Z,22.92
2018-07-04T18:01:09.991Z,23.11
2018-07-04T18:03:50.184Z,23.01
2018-07-04T18:06:30.545Z,22.92
2018-07-04T18:09:10.885Z,22.84
2018-07-04T18:11:51.258Z,22.71
2018-07-04T18:14:32.582Z,22.73
2018-07-04T18:17:13.218Z,22.58
2018-07-04T18:19:53.299Z,22.59
2018-07-04T18:22:33.534Z,22.53
2018-07-04T18:25:14.553Z,22.39
2018-07-04T18:27:54.910Z,22.38
2018-07-04T18:30:35.208Z,22.40
2018-07-04T18:33:15.555Z,22.27
2018-07-04T18:35:57.501Z,22.26
2018-07-04T18:38:37.622Z,21.99
2018-07-04T18:41:17.810Z,22.19
2018-07-04T18:43:58.143Z,22.48
2018-07-04T18:46:38.322Z,22.51
2018-07-04T18:49:18.632Z,22.39
2018-07-04T18:51:59.002Z,22.24
2018-07-04T18:54:39.475Z,22.00
2018-07-04T18:57:19.536Z,21.81
2018-07-04T19:00:00.202Z,21.64
2018-07-04T19:02:40.836Z,21.42
2018-07-04T19:05:20.840Z,21.26
2018-07-04T19:08:01.061Z,21.10
2018-07-04T19:10:41.132Z,20.96
2018-07-04T19:13:21.437Z,20.99
2018-07-04T19:16:01.791Z,20.90
2018-07-04T19:18:42.489Z,20.73
2018-07-04T19:21:23.117Z,20.74
2018-07-04T19:24:05.074Z,20.75
2018-07-04T19:26:46.142Z,20.70
2018-07-04T19:29:26.617Z,20.86
2018-07-04T19:32:06.665Z,20.99
2018-07-04T19:34:46.732Z,21.03
2018-07-04T19:37:27.114Z,21.07
2018-07-04T19:40:07.419Z,20.98
2018-07-04T19:42:47.712Z,20.70
2018-07-04T19:45:28.187Z,20.63
2018-07-04T19:48:09.000Z,20.76
2018-07-04T19:50:49.436Z,20.65
2018-07-04T19:53:29.954Z,20.72
2018-07-04T19:56:10.394Z,20.52
2018-07-04T19:58:50.661Z,20.37
2018-07-04T20:01:32.082Z,20.28
2018-07-04T20:04:12.337Z,20.35
2018-07-04T20:06:53.555Z,20.48
2018-07-04T20:09:34.050Z,20.55
2018-07-04T20:12:14.429Z,20.57
2018-07-04T20:14:54.855Z,20.48
2018-07-04T20:17:35.156Z,20.35
2018-07-04T20:20:15.920Z,20.30
2018-07-04T20:22:56.894Z,20.28
2018-07-04T20:25:37.328Z,20.10
2018-07-04T20:28:17.520Z,20.10
2018-07-04T20:30:57.718Z,19.97
2018-07-04T20:33:37.809Z,20.00
2018-07-04T20:36:18.282Z,19.90
2018-07-04T20:38:59.013Z,19.96
2018-07-04T20:41:39.358Z,19.92
2018-07-04T20:44:20.592Z,19.99
2018-07-04T20:47:00.963Z,19.81
2018-07-04T20:49:43.946Z,19.66
2018-07-04T20:52:25.030Z,19.63
2018-07-04T20:55:06.317Z,19.49
2018-07-04T20:57:46.700Z,19.53
2018-07-04T21:00:27.330Z,19.47
2018-07-04T21:03:08.204Z,19.54
2018-07-04T21:05:48.637Z,19.51
2018-07-04T21:08:29.070Z,19.31
2018-07-04T21:11:09.525Z,19.38
2018-07-04T21:13:50.026Z,19.31
2018-07-04T21:16:30.280Z,19.31
2018-07-04T21:19:11.835Z,19.25
2018-07-04T21:21:52.971Z,19.16
2018-07-04T21:24:33.280Z,19.20
2018-07-04T21:27:14.553Z,19.13
2018-07-04T21:29:54.767Z,18.99
2018-07-04T21:32:36.092Z,18.77
2018-07-04T21:35:16.472Z,18.85
2018-07-04T21:37:56.475Z,18.71
2018-07-04T21:40:36.601Z,18.59
2018-07-04T21:43:17.895Z,18.49
2018-07-04T21:45:58.012Z,18.41
2018-07-04T21:48:38.548Z,18.46
2018-07-04T21:51:18.717Z,18.31
2018-07-04T21:54:00.014Z,18.25
2018-07-04T21:56:40.565Z,18.24
2018-07-04T21:59:20.713Z,18.25
2018-07-04T22:02:01.568Z,17.89
2018-07-04T22:04:42.029Z,17.68
2018-07-04T22:07:23.738Z,17.83
2018-07-04T22:10:04.331Z,17.71
2018-07-04T22:12:44.691Z,17.72
2018-07-04T22:15:24.928Z,17.98
2018-07-04T22:18:06.421Z,17.93
2018-07-04T22:20:47.054Z,17.95
2018-07-04T22:23:28.022Z,17.81
2018-07-04T22:26:09.309Z,17.81
2018-07-04T22:28:49.705Z,17.77
2018-07-04T22:31:30.263Z,17.75
2018-07-04T22:34:10.571Z,17.69
2018-07-04T22:36:51.128Z,17.61
2018-07-04T22:39:31.416Z,17.56
2018-07-04T22:42:13.367Z,17.58
2018-07-04T22:44:54.108Z,17.56
2018-07-04T22:47:34.680Z,17.10
2018-07-04T22:50:15.125Z,17.26
2018-07-04T22:52:55.362Z,17.29
2018-07-04T22:55:36.680Z,17.18
2018-07-04T22:58:17.413Z,17.16
2018-07-04T23:00:58.723Z,17.15
2018-07-04T23:03:39.005Z,17.10
2018-07-04T23:06:19.586Z,17.02
2018-07-04T23:08:59.830Z,17.00
2018-07-04T23:11:40.524Z,16.77
2018-07-04T23:14:20.924Z,16.79
2018-07-04T23:17:01.294Z,16.75
2018-07-04T23:19:42.220Z,16.73
2018-07-04T23:22:23.810Z,16.66
2018-07-04T23:25:05.365Z,16.52
2018-07-04T23:27:46.030Z,16.48
2018-07-04T23:30:26.951Z,16.48
2018-07-04T23:33:07.262Z,16.42
2018-07-04T23:35:47.630Z,16.48
2018-07-04T23:38:27.606Z,16.37
2018-07-04T23:41:07.907Z,16.11
2018-07-04T23:43:48.343Z,16.27
2018-07-04T23:46:29.216Z,16.07
2018-07-04T23:49:09.677Z,16.09
2018-07-04T23:51:50.075Z,16.11
2018-07-04T23:54:30.443Z,16.19
2018-07-04T23:57:10.819Z,16.16
2018-07-04T23:59:51.676Z,15.96
